EDDF Airport Information

Runway Information
Runway 07C Length 13123 ft width 197 ft
Elevation 329 ft Threshold 0 ft Heading 70
Runway 25C Length 13123 ft Width 197 ft
Elevation 364 ft Threshold 0 ft Heading 250
Runway 07L Length 9186 ft width 148 ft
Elevation 305 ft Threshold 0 ft Heading 70
Runway 25R Length 9186 ft Width 148 ft
Elevation 353 ft Threshold 0 ft Heading 250
Runway 07R Length 13123 ft width 148 ft
Elevation 328 ft Threshold 0 ft Heading 70
Runway 25L Length 13123 ft Width 148 ft
Elevation 362 ft Threshold 0 ft Heading 250
Runway 18 Length 13123 ft width 148 ft
Elevation 326 ft Threshold 0 ft Heading 180
Runway 36 Length 13123 ft Width 148 ft
Elevation 316 ft Threshold 0 ft Heading 360
Airport Frequencies
Type A/D Name LANGEN RAD Frequency 118.45 MHZ
Type A/D Name LANGEN RAD Frequency 127.275 MHZ
Type AFIS Name LANGEN INF Frequency 119.15 MHZ
Type ATIS Name ATIS Frequency 118.025 MHZ
Type CLD Name DELIVERY Frequency 121.9 MHZ
Type DIR Name DIR Frequency 124.2 MHZ
Type GND Name GND Frequency 121.8 MHZ
Type RMP Name APN Frequency 121.7 MHZ
Type TWR Name TWR Frequency 119.9 MHZ
Airport Navaids
Type VORTAC Name Frankfurt Frequency 114200 KHZ
Type NDB Name Frankfurt Frequency 297 KHZ
Type DME Name Frankfurt Frequency 115900 KHZ
Type NDB Name Frankfurt Frequency 382 KHZ
Airport Weather Information & NOTAM
ADDS - METARS form results

(0847 UTC 24 April 2018)
 
METAR text: EDDF 240820Z 23013KT 200V260 9999 FEW030 BKN300 15/08 Q1018 NOSIG
Conditions at: EDDF (FRANKFURT MAIN A, DE) observed 0820 UTC 24 April 2018
Temperature: 15.0°C (59°F)
Dewpoint: 8.0°C (46°F) [RH = 63%]
Pressure (altimeter): 30.06 inches Hg (1018.0 mb)
Winds: from the SW (230 degrees) at 15 MPH (13 knots; 6.8 m/s)
Visibility: 6 or more miles (10+ km)
Ceiling: 30000 feet AGL
Clouds: few clouds at 3000 feet AGL
broken clouds at 30000 feet AGL
Weather: no significant weather observed at this time

METAR text: EDDF 240750Z 22010KT 9999 FEW025 BKN300 15/09 Q1019 NOSIG
Conditions at: EDDF (FRANKFURT MAIN A, DE) observed 0750 UTC 24 April 2018
Temperature: 15.0°C (59°F)
Dewpoint: 9.0°C (48°F) [RH = 67%]
Pressure (altimeter): 30.09 inches Hg (1019.0 mb)
Winds: from the SW (220 degrees) at 12 MPH (10 knots; 5.2 m/s)
Visibility: 6 or more miles (10+ km)
Ceiling: 30000 feet AGL
Clouds: few clouds at 2500 feet AGL
broken clouds at 30000 feet AGL
Weather: no significant weather observed at this time